Senyomaru — JI3557 — position and weather

sailwx.info

Track history (hours):
 
Tides and Currents Weather Stations Pressure Air Temp Water Temp Dewpoint Dewpoint Depression Visibility Wind Speed Wind Dir Waves Ship Positions

Senyomaru

Last reported at 2014-Jul-22 11:09 UTC. Time now 2014-Jul-23 05:48 UTC.
Position N 34°03' E 135°02'.

Length 69 m; draft 4 m.

Type: Tanker. MMSI: 431300188.

Date/timePositionNaut miles runAvg speedWind from/ knotsBaromVisibWave heightAir tempDewpointWater temp
2014-Jul-22 11:09N 34°03' E 135°02'711.4
2014-Jul-22 10:32N 34°10' E 135°03'1110.9
2014-Jul-22 09:31N 34°21' E 135°06'1111.1
2014-Jul-22 08:33N 34°29' E 135°15'9 9.0
2014-Jul-22 07:31N 34°33' E 135°26'0 0.0
2014-Jul-22 06:26N 34°33' E 135°26'0 0.0
2014-Jul-22 05:05N 34°33' E 135°26'0 0.0
2014-Jul-22 04:05N 34°33' E 135°26'0 0.0
2014-Jul-22 03:29N 34°33' E 135°26'0 0.0
2014-Jul-22 02:05N 34°33' E 135°26'0 0.0
2014-Jul-22 01:29N 34°33' E 135°26'0 0.0
2014-Jul-22 00:17N 34°33' E 135°26'0 0.0
2014-Jul-21 23:29N 34°33' E 135°26'0 0.0
2014-Jul-21 22:29N 34°33' E 135°26'3 3.4
2014-Jul-21 21:30N 34°33' E 135°21'0 0.0
2014-Jul-21 20:30N 34°33' E 135°21'0 0.0
2014-Jul-21 20:12N 34°33' E 135°21'0 0.0
2014-Jul-21 19:30N 34°33' E 135°21'0 0.0
2014-Jul-21 18:30N 34°33' E 135°21'0 0.0
2014-Jul-21 17:30N 34°33' E 135°21'0 0.0
2014-Jul-21 16:30N 34°33' E 135°21'0 0.0
2014-Jul-21 15:06N 34°33' E 135°21'0 0.0
2014-Jul-21 14:06N 34°33' E 135°21'0 0.0
2014-Jul-21 13:24N 34°33' E 135°21'0 0.0
2014-Jul-21 12:30N 34°33' E 135°21'0 0.0
2014-Jul-21 11:30N 34°33' E 135°21'0 0.0
2014-Jul-21 10:12N 34°33' E 135°21'0 0.0
2014-Jul-21 09:30N 34°33' E 135°21'0 0.0
2014-Jul-21 08:24N 34°33' E 135°21'0 0.0
2014-Jul-21 07:30N 34°33' E 135°21'0 0.0
2014-Jul-21 06:30N 34°33' E 135°21'0 0.0
2014-Jul-21 05:12N 34°33' E 135°21'0 0.0
2014-Jul-21 04:30N 34°33' E 135°21'0 0.0
2014-Jul-21 03:24N 34°33' E 135°21'0 0.0
2014-Jul-20 18:18N 34°33' E 135°21'0 0.0
2014-Jul-20 17:30N 34°33' E 135°21'0 0.0
2014-Jul-20 16:30N 34°33' E 135°21'0 0.0
2014-Jul-20 15:12N 34°33' E 135°21'0 0.0
2014-Jul-20 14:30N 34°33' E 135°21'0 0.0
2014-Jul-20 13:30N 34°33' E 135°21'0 0.0
2014-Jul-20 12:30N 34°33' E 135°21'0 0.1
2014-Jul-20 08:32N 34°33' E 135°21'1212.1
2014-Jul-20 07:32N 34°25' E 135°10'1212.7
2014-Jul-20 06:33N 34°14' E 135°03'20510.2
2014-Jul-19 10:27N 34°46' E 139°09'2110.7
2014-Jul-19 08:31N 34°60' E 139°28'1111.6
2014-Jul-19 07:33N 35°06' E 139°40'1211.9
2014-Jul-19 06:33N 35°17' E 139°45'1111.0
2014-Jul-19 05:33N 35°28' E 139°46'4 3.9
2014-Jul-19 04:32N 35°32' E 139°45'0 0.0
2014-Jul-19 03:32N 35°32' E 139°45'0 0.0
2014-Jul-19 02:32N 35°32' E 139°45'1 1.2
2014-Jul-19 01:34N 35°31' E 139°46'3 2.2
2014-Jul-19 00:23N 35°29' E 139°49'0 0.0
2014-Jul-18 23:32N 35°29' E 139°49'0 0.0
2014-Jul-18 22:32N 35°29' E 139°49'0 0.0
2014-Jul-18 21:32N 35°29' E 139°49'0 0.0
2014-Jul-18 20:32N 35°29' E 139°49'0 0.0
2014-Jul-18 19:32N 35°29' E 139°49'0 0.0
2014-Jul-18 18:29N 35°29' E 139°49'0 0.0
2014-Jul-18 17:29N 35°29' E 139°49'0 0.0
2014-Jul-18 16:32N 35°29' E 139°49'0 0.0
2014-Jul-18 15:32N 35°29' E 139°49'0 0.0
2014-Jul-18 14:29N 35°29' E 139°49'0 0.0
2014-Jul-18 13:32N 35°29' E 139°49'0 0.0
2014-Jul-18 12:32N 35°29' E 139°49'0 0.0
2014-Jul-18 11:32N 35°29' E 139°49'0 0.0
2014-Jul-18 10:32N 35°29' E 139°49'0 0.0
2014-Jul-18 09:32N 35°29' E 139°49'0 0.0
2014-Jul-18 08:29N 35°29' E 139°49'0 0.0
2014-Jul-18 07:32N 35°29' E 139°49'0 0.0
2014-Jul-18 06:32N 35°29' E 139°49'0 0.0
2014-Jul-18 05:29N 35°29' E 139°49'0 0.0
2014-Jul-18 04:29N 35°29' E 139°49'0 0.0
2014-Jul-18 03:29N 35°29' E 139°49'0 0.0
2014-Jul-18 02:32N 35°29' E 139°49'0 0.0
2014-Jul-18 01:26N 35°29' E 139°49'0 0.0
2014-Jul-18 00:32N 35°29' E 139°49'0 0.0
2014-Jul-17 23:29N 35°29' E 139°49'0 0.0
2014-Jul-17 22:32N 35°29' E 139°49'0 0.0
2014-Jul-17 21:32N 35°29' E 139°49'0 0.0
2014-Jul-17 20:32N 35°29' E 139°49'0 0.0
2014-Jul-17 19:32N 35°29' E 139°49'0 0.0
2014-Jul-17 18:29N 35°29' E 139°49'0 0.0
2014-Jul-17 17:32N 35°29' E 139°49'0 0.0
2014-Jul-17 16:32N 35°29' E 139°49'0 0.0
2014-Jul-17 15:29N 35°29' E 139°49'0 0.0
2014-Jul-17 14:32N 35°29' E 139°49'0 0.0
2014-Jul-17 13:32N 35°29' E 139°49'0 0.0
2014-Jul-17 12:29N 35°29' E 139°49'0 0.0
2014-Jul-17 11:32N 35°29' E 139°49'0 0.1
2014-Jul-17 10:29N 35°29' E 139°49'0 0.0
2014-Jul-17 09:32N 35°29' E 139°49'0 0.0
2014-Jul-17 08:29N 35°29' E 139°49'0 0.0
2014-Jul-17 07:29N 35°29' E 139°49'0 0.0
2014-Jul-17 06:32N 35°29' E 139°49'0 0.0
2014-Jul-17 05:32N 35°29' E 139°49'5 5.3
2014-Jul-17 04:33N 35°25' E 139°46'1110.8
2014-Jul-17 03:33N 35°14' E 139°47'1211.8
2014-Jul-17 02:33N 35°03' E 139°40'  
Track history (hours):
 
Tides and Currents Weather Stations Pressure Air Temp Water Temp Dewpoint Dewpoint Depression Visibility Wind Speed Wind Dir Waves Ship Positions

Senyomaru

Last reported at 2014-Jul-22 11:09 UTC. Time now 2014-Jul-23 05:48 UTC.
Position N 34°03' E 135°02'.

Length 69 m; draft 4 m.

Type: Tanker. MMSI: 431300188.

Date/timePositionNaut miles runAvg speedWind from/ knotsBaromVisibWave heightAir tempDewpointWater temp
2014-Jul-22 11:09N 34°03' E 135°02'711.4
2014-Jul-22 10:32N 34°10' E 135°03'1110.9
2014-Jul-22 09:31N 34°21' E 135°06'1111.1
2014-Jul-22 08:33N 34°29' E 135°15'9 9.0
2014-Jul-22 07:31N 34°33' E 135°26'0 0.0
2014-Jul-22 06:26N 34°33' E 135°26'0 0.0
2014-Jul-22 05:05N 34°33' E 135°26'0 0.0
2014-Jul-22 04:05N 34°33' E 135°26'0 0.0
2014-Jul-22 03:29N 34°33' E 135°26'0 0.0
2014-Jul-22 02:05N 34°33' E 135°26'0 0.0
2014-Jul-22 01:29N 34°33' E 135°26'0 0.0
2014-Jul-22 00:17N 34°33' E 135°26'0 0.0
2014-Jul-21 23:29N 34°33' E 135°26'0 0.0
2014-Jul-21 22:29N 34°33' E 135°26'3 3.4
2014-Jul-21 21:30N 34°33' E 135°21'0 0.0
2014-Jul-21 20:30N 34°33' E 135°21'0 0.0
2014-Jul-21 20:12N 34°33' E 135°21'0 0.0
2014-Jul-21 19:30N 34°33' E 135°21'0 0.0
2014-Jul-21 18:30N 34°33' E 135°21'0 0.0
2014-Jul-21 17:30N 34°33' E 135°21'0 0.0
2014-Jul-21 16:30N 34°33' E 135°21'0 0.0
2014-Jul-21 15:06N 34°33' E 135°21'0 0.0
2014-Jul-21 14:06N 34°33' E 135°21'0 0.0
2014-Jul-21 13:24N 34°33' E 135°21'0 0.0
2014-Jul-21 12:30N 34°33' E 135°21'0 0.0
2014-Jul-21 11:30N 34°33' E 135°21'0 0.0
2014-Jul-21 10:12N 34°33' E 135°21'0 0.0
2014-Jul-21 09:30N 34°33' E 135°21'0 0.0
2014-Jul-21 08:24N 34°33' E 135°21'0 0.0
2014-Jul-21 07:30N 34°33' E 135°21'0 0.0
2014-Jul-21 06:30N 34°33' E 135°21'0 0.0
2014-Jul-21 05:12N 34°33' E 135°21'0 0.0
2014-Jul-21 04:30N 34°33' E 135°21'0 0.0
2014-Jul-21 03:24N 34°33' E 135°21'0 0.0
2014-Jul-20 18:18N 34°33' E 135°21'0 0.0
2014-Jul-20 17:30N 34°33' E 135°21'0 0.0
2014-Jul-20 16:30N 34°33' E 135°21'0 0.0
2014-Jul-20 15:12N 34°33' E 135°21'0 0.0
2014-Jul-20 14:30N 34°33' E 135°21'0 0.0
2014-Jul-20 13:30N 34°33' E 135°21'0 0.0
2014-Jul-20 12:30N 34°33' E 135°21'0 0.1
2014-Jul-20 08:32N 34°33' E 135°21'1212.1
2014-Jul-20 07:32N 34°25' E 135°10'1212.7
2014-Jul-20 06:33N 34°14' E 135°03'20510.2
2014-Jul-19 10:27N 34°46' E 139°09'2110.7
2014-Jul-19 08:31N 34°60' E 139°28'1111.6
2014-Jul-19 07:33N 35°06' E 139°40'1211.9
2014-Jul-19 06:33N 35°17' E 139°45'1111.0
2014-Jul-19 05:33N 35°28' E 139°46'4 3.9
2014-Jul-19 04:32N 35°32' E 139°45'0 0.0
2014-Jul-19 03:32N 35°32' E 139°45'0 0.0
2014-Jul-19 02:32N 35°32' E 139°45'1 1.2
2014-Jul-19 01:34N 35°31' E 139°46'3 2.2
2014-Jul-19 00:23N 35°29' E 139°49'0 0.0
2014-Jul-18 23:32N 35°29' E 139°49'0 0.0
2014-Jul-18 22:32N 35°29' E 139°49'0 0.0
2014-Jul-18 21:32N 35°29' E 139°49'0 0.0
2014-Jul-18 20:32N 35°29' E 139°49'0 0.0
2014-Jul-18 19:32N 35°29' E 139°49'0 0.0
2014-Jul-18 18:29N 35°29' E 139°49'0 0.0
2014-Jul-18 17:29N 35°29' E 139°49'0 0.0
2014-Jul-18 16:32N 35°29' E 139°49'0 0.0
2014-Jul-18 15:32N 35°29' E 139°49'0 0.0
2014-Jul-18 14:29N 35°29' E 139°49'0 0.0
2014-Jul-18 13:32N 35°29' E 139°49'0 0.0
2014-Jul-18 12:32N 35°29' E 139°49'0 0.0
2014-Jul-18 11:32N 35°29' E 139°49'0 0.0
2014-Jul-18 10:32N 35°29' E 139°49'0 0.0
2014-Jul-18 09:32N 35°29' E 139°49'0 0.0
2014-Jul-18 08:29N 35°29' E 139°49'0 0.0
2014-Jul-18 07:32N 35°29' E 139°49'0 0.0
2014-Jul-18 06:32N 35°29' E 139°49'0 0.0
2014-Jul-18 05:29N 35°29' E 139°49'0 0.0
2014-Jul-18 04:29N 35°29' E 139°49'0 0.0
2014-Jul-18 03:29N 35°29' E 139°49'0 0.0
2014-Jul-18 02:32N 35°29' E 139°49'0 0.0
2014-Jul-18 01:26N 35°29' E 139°49'0 0.0
2014-Jul-18 00:32N 35°29' E 139°49'0 0.0
2014-Jul-17 23:29N 35°29' E 139°49'0 0.0
2014-Jul-17 22:32N 35°29' E 139°49'0 0.0
2014-Jul-17 21:32N 35°29' E 139°49'0 0.0
2014-Jul-17 20:32N 35°29' E 139°49'0 0.0
2014-Jul-17 19:32N 35°29' E 139°49'0 0.0
2014-Jul-17 18:29N 35°29' E 139°49'0 0.0
2014-Jul-17 17:32N 35°29' E 139°49'0 0.0
2014-Jul-17 16:32N 35°29' E 139°49'0 0.0
2014-Jul-17 15:29N 35°29' E 139°49'0 0.0
2014-Jul-17 14:32N 35°29' E 139°49'0 0.0
2014-Jul-17 13:32N 35°29' E 139°49'0 0.0
2014-Jul-17 12:29N 35°29' E 139°49'0 0.0
2014-Jul-17 11:32N 35°29' E 139°49'0 0.1
2014-Jul-17 10:29N 35°29' E 139°49'0 0.0
2014-Jul-17 09:32N 35°29' E 139°49'0 0.0
2014-Jul-17 08:29N 35°29' E 139°49'0 0.0
2014-Jul-17 07:29N 35°29' E 139°49'0 0.0
2014-Jul-17 06:32N 35°29' E 139°49'0 0.0
2014-Jul-17 05:32N 35°29' E 139°49'5 5.3
2014-Jul-17 04:33N 35°25' E 139°46'1110.8
2014-Jul-17 03:33N 35°14' E 139°47'1211.8
2014-Jul-17 02:33N 35°03' E 139°40'  

Dump ship's entire track history